Terminal Aerodrome Forecast
Issued by NWS Brownsville, TX

Home | Current Version | Previous Version | Text Only | Print | Product List | Glossary On
Versions: 1 2 3 4 5 6 7 8 9 10 11 12 13 14 15
000
FTUS44 KBRO 290500
TAFMFE
TAF
KMFE 290527Z 2906/3006 04005KT P6SM SCT030
      TEMPO 2906/2910 BKN030
     FM291200 VRB04KT P6SM VCSH SCT030 BKN200
      TEMPO 2912/2916 5SM TSRA BR BKN025CB
     FM291600 18006KT P6SM VCSH SCT030 BKN100
      TEMPO 2918/2922 3SM TSRA BR BKN020CB OVC150
     FM300000 13010KT P6SM VCSH SCT030 BKN250 PROB30 3000/3003 P6SM
      TSRA BKN040CB=

USA.gov is the U.S. government's official web portal to all federal, state and local government web resources and services.